sensor_id;sensor_type;location;lat;lon;timestamp;temperature;humidity
3268;DHT22;1646;52.450;13.326;2023-09-07T00:04:08;21.00;99.90
3268;DHT22;1646;52.450;13.326;2023-09-07T00:09:07;21.00;99.90
3268;DHT22;1646;52.450;13.326;2023-09-07T00:14:06;21.00;99.90
3268;DHT22;1646;52.450;13.326;2023-09-07T00:19:06;20.90;99.90
3268;DHT22;1646;52.450;13.326;2023-09-07T00:24:05;20.80;99.90
3268;DHT22;1646;52.450;13.326;2023-09-07T00:29:03;20.70;99.90
3268;DHT22;1646;52.450;13.326;2023-09-07T00:34:03;20.70;99.90
3268;DHT22;1646;52.450;13.326;2023-09-07T00:39:03;20.70;99.90
3268;DHT22;1646;52.450;13.326;2023-09-07T00:44:02;20.60;99.90
3268;DHT22;1646;52.450;13.326;2023-09-07T00:49:00;20.60;99.90
3268;DHT22;1646;52.450;13.326;2023-09-07T00:53:59;20.60;99.90
3268;DHT22;1646;52.450;13.326;2023-09-07T00:58:59;20.50;99.90
3268;DHT22;1646;52.450;13.326;2023-09-07T01:03:57;20.40;99.90
3268;DHT22;1646;52.450;13.326;2023-09-07T01:09:03;20.40;99.90
3268;DHT22;1646;52.450;13.326;2023-09-07T01:14:03;20.40;99.90
3268;DHT22;1646;52.450;13.326;2023-09-07T01:19:02;20.30;99.90
3268;DHT22;1646;52.450;13.326;2023-09-07T01:24:06;20.30;99.90
3268;DHT22;1646;52.450;13.326;2023-09-07T01:29:05;20.30;99.90
3268;DHT22;1646;52.450;13.326;2023-09-07T01:34:03;20.20;99.90
3268;DHT22;1646;52.450;13.326;2023-09-07T01:39:05;20.30;99.90
3268;DHT22;1646;52.450;13.326;2023-09-07T01:44:04;20.10;99.90
3268;DHT22;1646;52.450;13.326;2023-09-07T01:49:03;20.00;99.90
3268;DHT22;1646;52.450;13.326;2023-09-07T01:54:01;20.00;99.90
3268;DHT22;1646;52.450;13.326;2023-09-07T01:59:01;20.00;99.90
3268;DHT22;1646;52.450;13.326;2023-09-07T02:04:00;19.90;99.90
3268;DHT22;1646;52.450;13.326;2023-09-07T02:08:58;19.80;99.90
3268;DHT22;1646;52.450;13.326;2023-09-07T02:13:56;19.80;99.90
3268;DHT22;1646;52.450;13.326;2023-09-07T02:19:01;19.80;99.90
3268;DHT22;1646;52.450;13.326;2023-09-07T02:24:01;19.80;99.90
3268;DHT22;1646;52.450;13.326;2023-09-07T02:29:00;19.70;99.90
3268;DHT22;1646;52.450;13.326;2023-09-07T02:34:04;19.70;99.90
3268;DHT22;1646;52.450;13.326;2023-09-07T02:39:03;19.70;99.90
3268;DHT22;1646;52.450;13.326;2023-09-07T02:44:02;19.60;99.90
3268;DHT22;1646;52.450;13.326;2023-09-07T02:49:00;19.60;99.90
3268;DHT22;1646;52.450;13.326;2023-09-07T02:54:02;19.50;99.90
3268;DHT22;1646;52.450;13.326;2023-09-07T02:59:02;19.50;99.90
3268;DHT22;1646;52.450;13.326;2023-09-07T03:04:00;19.40;99.90
3268;DHT22;1646;52.450;13.326;2023-09-07T03:09:02;19.40;99.90
3268;DHT22;1646;52.450;13.326;2023-09-07T03:14:08;19.40;99.90
3268;DHT22;1646;52.450;13.326;2023-09-07T03:19:06;19.30;99.90
3268;DHT22;1646;52.450;13.326;2023-09-07T03:24:06;19.20;99.90
3268;DHT22;1646;52.450;13.326;2023-09-07T03:29:05;19.10;99.90
3268;DHT22;1646;52.450;13.326;2023-09-07T03:34:04;19.10;99.90
3268;DHT22;1646;52.450;13.326;2023-09-07T03:39:03;19.10;99.90
3268;DHT22;1646;52.450;13.326;2023-09-07T03:44:06;19.00;99.90
3268;DHT22;1646;52.450;13.326;2023-09-07T03:49:05;18.90;99.90
3268;DHT22;1646;52.450;13.326;2023-09-07T03:54:03;18.90;99.90
3268;DHT22;1646;52.450;13.326;2023-09-07T03:59:02;18.90;99.90
3268;DHT22;1646;52.450;13.326;2023-09-07T04:04:02;18.90;99.90
3268;DHT22;1646;52.450;13.326;2023-09-07T04:09:01;18.80;99.90
3268;DHT22;1646;52.450;13.326;2023-09-07T04:14:00;18.80;99.90
3268;DHT22;1646;52.450;13.326;2023-09-07T04:18:58;18.80;99.90
3268;DHT22;1646;52.450;13.326;2023-09-07T04:23:58;18.80;99.90
3268;DHT22;1646;52.450;13.326;2023-09-07T04:28:57;18.80;99.90
3268;DHT22;1646;52.450;13.326;2023-09-07T04:33:55;18.80;99.90
3268;DHT22;1646;52.450;13.326;2023-09-07T04:38:54;18.80;99.90
3268;DHT22;1646;52.450;13.326;2023-09-07T04:43:54;18.80;99.90
3268;DHT22;1646;52.450;13.326;2023-09-07T04:48:52;18.80;99.90
3268;DHT22;1646;52.450;13.326;2023-09-07T04:53:51;18.80;99.90
3268;DHT22;1646;52.450;13.326;2023-09-07T04:58:51;18.80;99.90
3268;DHT22;1646;52.450;13.326;2023-09-07T05:03:51;18.80;99.90
3268;DHT22;1646;52.450;13.326;2023-09-07T05:08:51;18.80;99.90
3268;DHT22;1646;52.450;13.326;2023-09-07T05:13:50;18.90;99.90
3268;DHT22;1646;52.450;13.326;2023-09-07T05:18:48;18.90;99.90
3268;DHT22;1646;52.450;13.326;2023-09-07T05:23:48;19.00;99.90
3268;DHT22;1646;52.450;13.326;2023-09-07T05:28:47;19.10;99.90
3268;DHT22;1646;52.450;13.326;2023-09-07T05:33:45;19.20;99.90
3268;DHT22;1646;52.450;13.326;2023-09-07T05:38:44;19.30;99.90
3268;DHT22;1646;52.450;13.326;2023-09-07T05:43:44;19.40;99.90
3268;DHT22;1646;52.450;13.326;2023-09-07T05:48:42;19.60;99.90
3268;DHT22;1646;52.450;13.326;2023-09-07T05:53:41;19.70;99.90
3268;DHT22;1646;52.450;13.326;2023-09-07T05:58:39;20.00;99.90
3268;DHT22;1646;52.450;13.326;2023-09-07T06:03:42;20.10;99.90
3268;DHT22;1646;52.450;13.326;2023-09-07T06:08:40;20.20;99.90
3268;DHT22;1646;52.450;13.326;2023-09-07T06:13:39;20.40;99.90
3268;DHT22;1646;52.450;13.326;2023-09-07T06:18:38;20.60;99.90
3268;DHT22;1646;52.450;13.326;2023-09-07T06:23:38;20.80;99.90
3268;DHT22;1646;52.450;13.326;2023-09-07T06:28:37;20.90;99.90
3268;DHT22;1646;52.450;13.326;2023-09-07T06:33:36;21.10;99.90
3268;DHT22;1646;52.450;13.326;2023-09-07T06:38:34;21.30;99.90
3268;DHT22;1646;52.450;13.326;2023-09-07T06:43:34;21.50;99.90
3268;DHT22;1646;52.450;13.326;2023-09-07T06:48:34;21.70;99.90
3268;DHT22;1646;52.450;13.326;2023-09-07T06:53:33;21.90;99.90
3268;DHT22;1646;52.450;13.326;2023-09-07T06:58:53;22.00;99.90
3268;DHT22;1646;52.450;13.326;2023-09-07T07:03:51;22.20;99.90
3268;DHT22;1646;52.450;13.326;2023-09-07T07:08:51;22.40;99.90
3268;DHT22;1646;52.450;13.326;2023-09-07T07:13:50;22.50;99.90
3268;DHT22;1646;52.450;13.326;2023-09-07T07:18:50;22.70;99.90
3268;DHT22;1646;52.450;13.326;2023-09-07T07:23:49;22.80;99.90
3268;DHT22;1646;52.450;13.326;2023-09-07T07:28:47;23.00;99.90
3268;DHT22;1646;52.450;13.326;2023-09-07T07:33:46;23.00;99.90
3268;DHT22;1646;52.450;13.326;2023-09-07T07:38:48;23.10;99.90
3268;DHT22;1646;52.450;13.326;2023-09-07T07:43:48;23.30;99.90
3268;DHT22;1646;52.450;13.326;2023-09-07T07:48:46;23.50;99.90
3268;DHT22;1646;52.450;13.326;2023-09-07T07:53:45;23.60;99.90
3268;DHT22;1646;52.450;13.326;2023-09-07T07:58:44;23.70;99.90
3268;DHT22;1646;52.450;13.326;2023-09-07T08:03:44;24.00;99.90
3268;DHT22;1646;52.450;13.326;2023-09-07T08:08:43;24.10;99.90
3268;DHT22;1646;52.450;13.326;2023-09-07T08:13:41;24.30;99.90
3268;DHT22;1646;52.450;13.326;2023-09-07T08:18:45;24.50;99.90
3268;DHT22;1646;52.450;13.326;2023-09-07T08:23:45;24.80;99.90
3268;DHT22;1646;52.450;13.326;2023-09-07T08:28:45;25.00;99.90
3268;DHT22;1646;52.450;13.326;2023-09-07T08:33:45;25.10;99.90
3268;DHT22;1646;52.450;13.326;2023-09-07T08:38:47;25.40;99.90
3268;DHT22;1646;52.450;13.326;2023-09-07T08:43:46;25.70;99.90
3268;DHT22;1646;52.450;13.326;2023-09-07T08:48:46;26.00;99.90
3268;DHT22;1646;52.450;13.326;2023-09-07T08:53:45;26.70;99.90
3268;DHT22;1646;52.450;13.326;2023-09-07T08:58:47;28.20;99.90
3268;DHT22;1646;52.450;13.326;2023-09-07T09:03:48;30.20;99.90
3268;DHT22;1646;52.450;13.326;2023-09-07T09:08:49;31.50;99.80
3268;DHT22;1646;52.450;13.326;2023-09-07T09:13:49;32.60;95.00
3268;DHT22;1646;52.450;13.326;2023-09-07T09:18:50;34.20;92.20
3268;DHT22;1646;52.450;13.326;2023-09-07T09:23:51;35.90;86.90
3268;DHT22;1646;52.450;13.326;2023-09-07T09:28:50;37.20;74.20
3268;DHT22;1646;52.450;13.326;2023-09-07T09:33:50;36.70;63.80
3268;DHT22;1646;52.450;13.326;2023-09-07T09:38:50;36.30;64.60
3268;DHT22;1646;52.450;13.326;2023-09-07T09:43:52;36.70;60.60
3268;DHT22;1646;52.450;13.326;2023-09-07T09:48:54;37.90;59.50
3268;DHT22;1646;52.450;13.326;2023-09-07T09:53:54;38.40;56.70
3268;DHT22;1646;52.450;13.326;2023-09-07T09:58:53;39.00;53.60
3268;DHT22;1646;52.450;13.326;2023-09-07T10:03:53;38.70;52.50
3268;DHT22;1646;52.450;13.326;2023-09-07T10:08:58;39.70;52.10
3268;DHT22;1646;52.450;13.326;2023-09-07T10:13:57;40.10;48.40
3268;DHT22;1646;52.450;13.326;2023-09-07T10:18:57;39.70;49.20
3268;DHT22;1646;52.450;13.326;2023-09-07T10:23:56;40.40;48.10
3268;DHT22;1646;52.450;13.326;2023-09-07T10:29:01;41.60;48.30
3268;DHT22;1646;52.450;13.326;2023-09-07T10:34:10;42.50;46.40
3268;DHT22;1646;52.450;13.326;2023-09-07T10:39:09;42.40;44.70
3268;DHT22;1646;52.450;13.326;2023-09-07T10:44:13;41.70;44.20
3268;DHT22;1646;52.450;13.326;2023-09-07T10:49:12;41.70;43.10
3268;DHT22;1646;52.450;13.326;2023-09-07T10:54:15;40.90;42.20
3268;DHT22;1646;52.450;13.326;2023-09-07T10:59:13;39.90;45.00
3268;DHT22;1646;52.450;13.326;2023-09-07T11:04:13;39.10;44.80
3268;DHT22;1646;52.450;13.326;2023-09-07T11:09:14;38.30;45.60
3268;DHT22;1646;52.450;13.326;2023-09-07T11:14:13;37.90;47.10
3268;DHT22;1646;52.450;13.326;2023-09-07T11:19:13;37.80;45.80
3268;DHT22;1646;52.450;13.326;2023-09-07T11:24:12;37.30;45.80
3268;DHT22;1646;52.450;13.326;2023-09-07T11:29:14;36.90;45.60
3268;DHT22;1646;52.450;13.326;2023-09-07T11:34:15;36.50;46.90
3268;DHT22;1646;52.450;13.326;2023-09-07T11:39:14;36.30;46.00
3268;DHT22;1646;52.450;13.326;2023-09-07T11:44:12;36.20;46.90
3268;DHT22;1646;52.450;13.326;2023-09-07T11:49:12;35.90;48.70
3268;DHT22;1646;52.450;13.326;2023-09-07T11:54:12;36.10;47.60
3268;DHT22;1646;52.450;13.326;2023-09-07T11:59:10;36.00;47.90
3268;DHT22;1646;52.450;13.326;2023-09-07T12:04:09;36.10;47.00
3268;DHT22;1646;52.450;13.326;2023-09-07T12:09:08;36.20;47.20
3268;DHT22;1646;52.450;13.326;2023-09-07T12:14:08;36.30;47.90
3268;DHT22;1646;52.450;13.326;2023-09-07T12:19:07;36.10;47.00
3268;DHT22;1646;52.450;13.326;2023-09-07T12:24:06;35.80;48.50
3268;DHT22;1646;52.450;13.326;2023-09-07T12:29:04;35.40;47.10
3268;DHT22;1646;52.450;13.326;2023-09-07T12:34:04;35.20;47.90
3268;DHT22;1646;52.450;13.326;2023-09-07T12:39:03;35.20;48.40
3268;DHT22;1646;52.450;13.326;2023-09-07T12:44:03;35.10;47.60
3268;DHT22;1646;52.450;13.326;2023-09-07T12:49:01;34.80;48.80
3268;DHT22;1646;52.450;13.326;2023-09-07T12:54:01;34.70;50.70
3268;DHT22;1646;52.450;13.326;2023-09-07T12:58:59;34.50;50.40
3268;DHT22;1646;52.450;13.326;2023-09-07T13:04:03;34.60;49.30
3268;DHT22;1646;52.450;13.326;2023-09-07T13:09:02;34.40;51.00
3268;DHT22;1646;52.450;13.326;2023-09-07T13:14:01;34.20;50.30
3268;DHT22;1646;52.450;13.326;2023-09-07T13:19:07;33.80;49.80
3268;DHT22;1646;52.450;13.326;2023-09-07T13:24:07;33.40;50.50
3268;DHT22;1646;52.450;13.326;2023-09-07T13:29:05;33.20;50.20
3268;DHT22;1646;52.450;13.326;2023-09-07T13:34:04;32.90;51.10
3268;DHT22;1646;52.450;13.326;2023-09-07T13:39:02;32.80;51.50
3268;DHT22;1646;52.450;13.326;2023-09-07T13:44:02;32.80;50.60
3268;DHT22;1646;52.450;13.326;2023-09-07T13:49:00;32.60;50.40
3268;DHT22;1646;52.450;13.326;2023-09-07T13:53:58;32.60;50.70
3268;DHT22;1646;52.450;13.326;2023-09-07T13:58:57;32.50;50.20
3268;DHT22;1646;52.450;13.326;2023-09-07T14:03:56;32.60;50.80
3268;DHT22;1646;52.450;13.326;2023-09-07T14:08:55;32.80;50.80
3268;DHT22;1646;52.450;13.326;2023-09-07T14:13:53;32.80;49.80
3268;DHT22;1646;52.450;13.326;2023-09-07T14:18:52;33.00;50.30
3268;DHT22;1646;52.450;13.326;2023-09-07T14:23:51;33.00;49.70
3268;DHT22;1646;52.450;13.326;2023-09-07T14:28:50;33.00;49.50
3268;DHT22;1646;52.450;13.326;2023-09-07T14:33:48;33.00;51.40
3268;DHT22;1646;52.450;13.326;2023-09-07T14:38:46;33.20;49.50
3268;DHT22;1646;52.450;13.326;2023-09-07T14:43:46;33.00;48.70
3268;DHT22;1646;52.450;13.326;2023-09-07T14:48:45;33.00;48.80
3268;DHT22;1646;52.450;13.326;2023-09-07T14:53:45;33.00;49.20
3268;DHT22;1646;52.450;13.326;2023-09-07T14:58:45;32.80;48.40
3268;DHT22;1646;52.450;13.326;2023-09-07T15:03:43;32.90;50.80
3268;DHT22;1646;52.450;13.326;2023-09-07T15:08:42;33.00;48.20
3268;DHT22;1646;52.450;13.326;2023-09-07T15:13:40;32.70;46.20
3268;DHT22;1646;52.450;13.326;2023-09-07T15:18:40;32.60;47.00
3268;DHT22;1646;52.450;13.326;2023-09-07T15:23:41;32.80;50.40
3268;DHT22;1646;52.450;13.326;2023-09-07T15:28:40;33.00;49.50
3268;DHT22;1646;52.450;13.326;2023-09-07T15:33:40;33.30;50.80
3268;DHT22;1646;52.450;13.326;2023-09-07T15:38:38;33.50;48.70
3268;DHT22;1646;52.450;13.326;2023-09-07T15:43:36;33.60;50.20
3268;DHT22;1646;52.450;13.326;2023-09-07T15:48:35;33.70;49.50
3268;DHT22;1646;52.450;13.326;2023-09-07T15:53:35;33.70;50.00
3268;DHT22;1646;52.450;13.326;2023-09-07T15:58:35;33.60;49.50
3268;DHT22;1646;52.450;13.326;2023-09-07T16:03:34;33.20;51.30
3268;DHT22;1646;52.450;13.326;2023-09-07T16:08:33;33.20;51.90
3268;DHT22;1646;52.450;13.326;2023-09-07T16:13:33;33.20;52.10
3268;DHT22;1646;52.450;13.326;2023-09-07T16:18:32;33.50;52.70
3268;DHT22;1646;52.450;13.326;2023-09-07T16:23:31;33.80;52.20
3268;DHT22;1646;52.450;13.326;2023-09-07T16:28:30;34.00;50.80
3268;DHT22;1646;52.450;13.326;2023-09-07T16:33:30;34.40;50.60
3268;DHT22;1646;52.450;13.326;2023-09-07T16:38:29;35.40;49.40
3268;DHT22;1646;52.450;13.326;2023-09-07T16:43:27;36.60;48.70
3268;DHT22;1646;52.450;13.326;2023-09-07T16:48:26;37.60;46.60
3268;DHT22;1646;52.450;13.326;2023-09-07T16:53:26;38.50;47.10
3268;DHT22;1646;52.450;13.326;2023-09-07T16:58:24;39.00;46.00
3268;DHT22;1646;52.450;13.326;2023-09-07T17:03:42;39.20;45.80
3268;DHT22;1646;52.450;13.326;2023-09-07T17:08:43;38.40;46.20
3268;DHT22;1646;52.450;13.326;2023-09-07T17:13:41;36.20;46.70
3268;DHT22;1646;52.450;13.326;2023-09-07T17:18:56;34.20;48.40
3268;DHT22;1646;52.450;13.326;2023-09-07T17:23:57;32.50;50.30
3268;DHT22;1646;52.450;13.326;2023-09-07T17:28:56;31.30;51.80
3268;DHT22;1646;52.450;13.326;2023-09-07T17:33:54;30.50;53.20
3268;DHT22;1646;52.450;13.326;2023-09-07T17:38:53;29.80;54.30
3268;DHT22;1646;52.450;13.326;2023-09-07T17:43:54;29.20;55.60
3268;DHT22;1646;52.450;13.326;2023-09-07T17:48:53;28.70;57.00
3268;DHT22;1646;52.450;13.326;2023-09-07T17:53:52;28.30;57.30
3268;DHT22;1646;52.450;13.326;2023-09-07T17:58:51;27.90;58.30
3268;DHT22;1646;52.450;13.326;2023-09-07T18:03:51;27.60;59.00
3268;DHT22;1646;52.450;13.326;2023-09-07T18:08:50;27.30;59.60
3268;DHT22;1646;52.450;13.326;2023-09-07T18:13:48;27.10;60.60
3268;DHT22;1646;52.450;13.326;2023-09-07T18:19:01;26.90;60.20
3268;DHT22;1646;52.450;13.326;2023-09-07T18:24:00;26.70;60.60
3268;DHT22;1646;52.450;13.326;2023-09-07T18:28:59;26.60;62.30
3268;DHT22;1646;52.450;13.326;2023-09-07T18:33:57;26.40;63.50
3268;DHT22;1646;52.450;13.326;2023-09-07T18:38:57;26.30;64.50
3268;DHT22;1646;52.450;13.326;2023-09-07T18:43:55;26.10;63.50
3268;DHT22;1646;52.450;13.326;2023-09-07T18:48:53;26.00;64.20
3268;DHT22;1646;52.450;13.326;2023-09-07T18:53:52;25.80;64.30
3268;DHT22;1646;52.450;13.326;2023-09-07T18:58:52;25.70;65.90
3268;DHT22;1646;52.450;13.326;2023-09-07T19:03:51;25.60;66.30
3268;DHT22;1646;52.450;13.326;2023-09-07T19:08:50;25.50;66.90
3268;DHT22;1646;52.450;13.326;2023-09-07T19:13:48;25.30;67.90
3268;DHT22;1646;52.450;13.326;2023-09-07T19:18:48;25.20;68.00
3268;DHT22;1646;52.450;13.326;2023-09-07T19:23:47;25.00;70.00
3268;DHT22;1646;52.450;13.326;2023-09-07T19:28:48;25.00;69.70
3268;DHT22;1646;52.450;13.326;2023-09-07T19:33:49;24.90;70.40
3268;DHT22;1646;52.450;13.326;2023-09-07T19:38:50;24.80;70.20
3268;DHT22;1646;52.450;13.326;2023-09-07T19:43:49;24.60;71.40
3268;DHT22;1646;52.450;13.326;2023-09-07T19:48:49;24.60;72.00
3268;DHT22;1646;52.450;13.326;2023-09-07T19:53:48;24.50;72.00
3268;DHT22;1646;52.450;13.326;2023-09-07T19:58:46;24.40;72.50
3268;DHT22;1646;52.450;13.326;2023-09-07T20:03:45;24.30;72.40
3268;DHT22;1646;52.450;13.326;2023-09-07T20:08:45;24.20;73.00
3268;DHT22;1646;52.450;13.326;2023-09-07T20:13:45;24.00;73.80
3268;DHT22;1646;52.450;13.326;2023-09-07T20:18:45;24.00;74.20
3268;DHT22;1646;52.450;13.326;2023-09-07T20:23:45;23.90;75.00
3268;DHT22;1646;52.450;13.326;2023-09-07T20:28:44;23.80;75.20
3268;DHT22;1646;52.450;13.326;2023-09-07T20:33:45;23.70;76.30
3268;DHT22;1646;52.450;13.326;2023-09-07T20:38:46;23.60;76.70
3268;DHT22;1646;52.450;13.326;2023-09-07T20:43:45;23.60;78.60
3268;DHT22;1646;52.450;13.326;2023-09-07T20:48:43;23.50;78.60
3268;DHT22;1646;52.450;13.326;2023-09-07T20:53:42;23.40;80.10
3268;DHT22;1646;52.450;13.326;2023-09-07T20:58:42;23.40;81.10
3268;DHT22;1646;52.450;13.326;2023-09-07T21:03:40;23.30;81.90
3268;DHT22;1646;52.450;13.326;2023-09-07T21:08:39;23.20;82.30
3268;DHT22;1646;52.450;13.326;2023-09-07T21:13:37;23.20;82.20
3268;DHT22;1646;52.450;13.326;2023-09-07T21:18:37;23.10;82.60
3268;DHT22;1646;52.450;13.326;2023-09-07T21:23:35;23.00;83.60
3268;DHT22;1646;52.450;13.326;2023-09-07T21:28:34;22.90;84.50
3268;DHT22;1646;52.450;13.326;2023-09-07T21:33:34;22.90;85.40
3268;DHT22;1646;52.450;13.326;2023-09-07T21:38:34;22.80;86.10
3268;DHT22;1646;52.450;13.326;2023-09-07T21:43:33;22.70;87.60
3268;DHT22;1646;52.450;13.326;2023-09-07T21:48:31;22.70;88.10
3268;DHT22;1646;52.450;13.326;2023-09-07T21:53:31;22.60;89.20
3268;DHT22;1646;52.450;13.326;2023-09-07T21:58:30;22.60;90.10
3268;DHT22;1646;52.450;13.326;2023-09-07T22:03:29;22.60;90.40
3268;DHT22;1646;52.450;13.326;2023-09-07T22:08:28;22.50;90.80
3268;DHT22;1646;52.450;13.326;2023-09-07T22:13:29;22.40;90.50
3268;DHT22;1646;52.450;13.326;2023-09-07T22:18:28;22.30;91.10
3268;DHT22;1646;52.450;13.326;2023-09-07T22:23:27;22.30;91.70
3268;DHT22;1646;52.450;13.326;2023-09-07T22:28:40;22.30;91.80
3268;DHT22;1646;52.450;13.326;2023-09-07T22:33:39;22.20;92.30
3268;DHT22;1646;52.450;13.326;2023-09-07T22:38:37;22.20;92.70
3268;DHT22;1646;52.450;13.326;2023-09-07T22:43:35;22.10;93.00
3268;DHT22;1646;52.450;13.326;2023-09-07T22:48:39;22.10;93.30
3268;DHT22;1646;52.450;13.326;2023-09-07T22:53:37;22.00;93.90
3268;DHT22;1646;52.450;13.326;2023-09-07T22:58:36;22.00;93.90
3268;DHT22;1646;52.450;13.326;2023-09-07T23:03:38;21.90;94.20
3268;DHT22;1646;52.450;13.326;2023-09-07T23:08:37;21.90;94.70
3268;DHT22;1646;52.450;13.326;2023-09-07T23:13:36;21.80;95.20
3268;DHT22;1646;52.450;13.326;2023-09-07T23:18:34;21.80;95.60
3268;DHT22;1646;52.450;13.326;2023-09-07T23:23:35;21.70;96.40
3268;DHT22;1646;52.450;13.326;2023-09-07T23:28:33;21.70;97.20
3268;DHT22;1646;52.450;13.326;2023-09-07T23:33:32;21.60;97.90
3268;DHT22;1646;52.450;13.326;2023-09-07T23:38:31;21.50;98.10
3268;DHT22;1646;52.450;13.326;2023-09-07T23:43:31;21.50;98.90
3268;DHT22;1646;52.450;13.326;2023-09-07T23:48:30;21.40;99.90
3268;DHT22;1646;52.450;13.326;2023-09-07T23:53:29;21.30;99.90
3268;DHT22;1646;52.450;13.326;2023-09-07T23:58:27;21.20;99.90
